createdAt,value
2018-03-11T00:00:02.743Z,94304
2018-03-11T00:02:30.840Z,94306
2018-03-11T00:04:59.015Z,94310
2018-03-11T00:07:27.195Z,94304
2018-03-11T00:09:55.547Z,94308
2018-03-11T00:12:23.714Z,94314
2018-03-11T00:14:51.976Z,94313
2018-03-11T00:17:20.180Z,94313
2018-03-11T00:19:48.409Z,94304
2018-03-11T00:22:16.560Z,94303
2018-03-11T00:24:44.656Z,94305
2018-03-11T00:27:12.790Z,94307
2018-03-11T00:29:40.890Z,94303
2018-03-11T00:32:08.991Z,94285
2018-03-11T00:34:37.076Z,94280
2018-03-11T00:37:05.162Z,94285
2018-03-11T00:39:33.264Z,94281
2018-03-11T00:42:01.372Z,94279
2018-03-11T00:44:30.184Z,94273
2018-03-11T00:46:58.281Z,94267
2018-03-11T00:49:26.468Z,94273
2018-03-11T00:51:54.726Z,94267
2018-03-11T00:54:22.901Z,94268
2018-03-11T00:56:51.813Z,94263
2018-03-11T00:59:19.922Z,94259
2018-03-11T01:01:48.796Z,94268
2018-03-11T01:04:16.873Z,94269
2018-03-11T01:06:44.975Z,94258
2018-03-11T01:09:13.061Z,94253
2018-03-11T01:11:41.163Z,94260
2018-03-11T01:14:09.259Z,94257
2018-03-11T01:16:37.373Z,94252
2018-03-11T01:19:06.257Z,94246
2018-03-11T01:21:34.341Z,94241
2018-03-11T01:24:03.266Z,94236
2018-03-11T01:26:31.360Z,94243
2018-03-11T01:28:59.459Z,94239
2018-03-11T01:31:27.569Z,94232
2018-03-11T01:33:55.671Z,94231
2018-03-11T01:36:23.783Z,94235
2018-03-11T01:38:52.598Z,94230
2018-03-11T01:41:20.702Z,94225
2018-03-11T01:43:48.872Z,94215
2018-03-11T01:46:16.999Z,94214
2018-03-11T01:48:45.113Z,94209
2018-03-11T01:51:13.241Z,94211
2018-03-11T01:53:42.096Z,94206
2018-03-11T01:56:10.204Z,94214
2018-03-11T01:58:39.096Z,94207
2018-03-11T02:01:07.194Z,94187
2018-03-11T02:03:35.292Z,94201
2018-03-11T02:06:03.414Z,94195
2018-03-11T02:08:31.510Z,94190
2018-03-11T02:10:59.596Z,94187
2018-03-11T02:13:27.741Z,94186
2018-03-11T02:15:56.652Z,94166
2018-03-11T02:18:24.747Z,94180
2018-03-11T02:20:52.820Z,94164
2018-03-11T02:23:20.902Z,94169
2018-03-11T02:25:49.009Z,94153
2018-03-11T02:28:17.097Z,94169
2018-03-11T02:30:45.266Z,94161
2018-03-11T02:33:13.381Z,94149
2018-03-11T02:35:41.509Z,94145
2018-03-11T02:38:09.602Z,94139
2018-03-11T02:40:37.685Z,94134
2018-03-11T02:43:05.952Z,94132
2018-03-11T02:45:34.039Z,94125
2018-03-11T02:48:02.177Z,94133
2018-03-11T02:50:30.258Z,94141
2018-03-11T02:52:58.835Z,94140
2018-03-11T02:55:27.012Z,94140
2018-03-11T02:57:55.160Z,94135
2018-03-11T03:00:23.286Z,94142
2018-03-11T03:02:51.876Z,94129
2018-03-11T03:05:20.045Z,94131
2018-03-11T03:07:48.254Z,94130
2018-03-11T03:10:16.358Z,94134
2018-03-11T03:12:44.455Z,94134
2018-03-11T03:15:12.561Z,94115
2018-03-11T03:17:40.666Z,94116
2018-03-11T03:20:08.776Z,94116
2018-03-11T03:22:36.889Z,94115
2018-03-11T03:25:05.020Z,94107
2018-03-11T03:27:33.257Z,94109
2018-03-11T03:30:01.499Z,94108
2018-03-11T03:32:29.690Z,94097
2018-03-11T03:34:57.795Z,94098
2018-03-11T03:37:25.964Z,94092
2018-03-11T03:39:54.535Z,94086
2018-03-11T03:42:22.761Z,94091
2018-03-11T03:44:50.920Z,94081
2018-03-11T03:47:19.024Z,94084
2018-03-11T03:49:47.154Z,94080
2018-03-11T03:52:15.266Z,94075
2018-03-11T03:54:43.399Z,94073
2018-03-11T03:57:11.692Z,94065
2018-03-11T03:59:39.795Z,94070
2018-03-11T04:02:07.949Z,94069
2018-03-11T04:04:36.284Z,94056
2018-03-11T04:07:04.380Z,94045
2018-03-11T04:09:32.523Z,94032
2018-03-11T04:12:00.759Z,94045
2018-03-11T04:14:29.025Z,94043
2018-03-11T04:16:57.225Z,94053
2018-03-11T04:19:25.410Z,94051
2018-03-11T04:21:53.537Z,94055
2018-03-11T04:24:21.716Z,94049
2018-03-11T04:26:49.839Z,94046
2018-03-11T04:29:18.034Z,94043
2018-03-11T04:31:46.136Z,94026
2018-03-11T04:34:14.221Z,94027
2018-03-11T04:36:42.305Z,94027
2018-03-11T04:39:10.410Z,94014
2018-03-11T04:41:38.534Z,94011
2018-03-11T04:44:06.660Z,94008
2018-03-11T04:46:34.770Z,94004
2018-03-11T04:49:02.878Z,94002
2018-03-11T04:51:30.960Z,93995
2018-03-11T04:53:59.066Z,94000
2018-03-11T04:56:27.254Z,93991
2018-03-11T04:58:55.440Z,93985
2018-03-11T05:01:23.534Z,93984
2018-03-11T05:03:51.609Z,93980
2018-03-11T05:06:19.713Z,93990
2018-03-11T05:08:47.835Z,93990
2018-03-11T05:11:15.987Z,93990
2018-03-11T05:13:44.077Z,94001
2018-03-11T05:16:12.215Z,94001
2018-03-11T05:18:40.493Z,94014
2018-03-11T05:21:08.911Z,94004
2018-03-11T05:23:37.073Z,94008
2018-03-11T05:26:05.226Z,94007
2018-03-11T05:28:33.509Z,94012
2018-03-11T05:31:01.721Z,94018
2018-03-11T05:33:29.859Z,94016
2018-03-11T05:35:57.960Z,94025
2018-03-11T05:38:26.227Z,94009
2018-03-11T05:40:54.339Z,94001
2018-03-11T05:43:23.205Z,93991
2018-03-11T05:45:51.721Z,93997
2018-03-11T05:48:19.808Z,93999
2018-03-11T05:50:47.903Z,93996
2018-03-11T05:53:16.010Z,93996
2018-03-11T05:55:44.144Z,94008
2018-03-11T05:58:12.293Z,93996
2018-03-11T06:00:41.152Z,93996
2018-03-11T06:03:09.268Z,93979
2018-03-11T06:05:37.364Z,93974
2018-03-11T06:08:05.455Z,93975
2018-03-11T06:10:33.740Z,93968
2018-03-11T06:13:01.840Z,93954
2018-03-11T06:15:29.929Z,93959
2018-03-11T06:17:58.046Z,93947
2018-03-11T06:20:26.205Z,93944
2018-03-11T06:22:54.301Z,93944
2018-03-11T06:25:22.415Z,93942
2018-03-11T06:27:50.497Z,93942
2018-03-11T06:30:18.595Z,93935
2018-03-11T06:32:46.710Z,93943
2018-03-11T06:35:14.801Z,93929
2018-03-11T06:37:42.915Z,93910
2018-03-11T06:40:11.003Z,93923
2018-03-11T06:42:39.118Z,93929
2018-03-11T06:45:07.219Z,93926
2018-03-11T06:47:35.395Z,93928
2018-03-11T06:50:03.741Z,93927
2018-03-11T06:52:31.874Z,93903
2018-03-11T06:55:00.801Z,93897
2018-03-11T06:57:28.889Z,93907
2018-03-11T06:59:56.987Z,93885
2018-03-11T07:02:25.083Z,93868
2018-03-11T07:04:53.195Z,93861
2018-03-11T07:07:21.412Z,93858
2018-03-11T07:09:49.631Z,93851
2018-03-11T07:12:17.736Z,93854
2018-03-11T07:14:45.841Z,93867
2018-03-11T07:17:13.980Z,93884
2018-03-11T07:19:42.064Z,93855
2018-03-11T07:22:14.008Z,93848
2018-03-11T07:24:42.117Z,93865
2018-03-11T07:27:10.241Z,93879
2018-03-11T07:29:39.099Z,93844
2018-03-11T07:32:07.964Z,93836
2018-03-11T07:34:36.083Z,93875
2018-03-11T07:37:04.212Z,93876
2018-03-11T07:39:32.315Z,93857
2018-03-11T07:42:00.400Z,93873
2018-03-11T07:44:28.521Z,93871
2018-03-11T07:46:56.627Z,93870
2018-03-11T07:49:25.482Z,93875
2018-03-11T07:51:53.574Z,93876
2018-03-11T07:54:21.652Z,93889
2018-03-11T07:56:49.759Z,93888
2018-03-11T07:59:17.902Z,93886
2018-03-11T08:01:46.045Z,93907
2018-03-11T08:04:14.126Z,93906
2018-03-11T08:06:42.285Z,93894
2018-03-11T08:09:10.507Z,93894
2018-03-11T08:11:39.368Z,93902
2018-03-11T08:14:07.603Z,93892
2018-03-11T08:16:35.735Z,93887
2018-03-11T08:19:04.604Z,93883
2018-03-11T08:21:32.780Z,93891
2018-03-11T08:24:00.979Z,93881
2018-03-11T08:26:29.171Z,93867
2018-03-11T08:28:57.299Z,93880
2018-03-11T08:31:25.391Z,93872
2018-03-11T08:33:53.496Z,93868
2018-03-11T08:36:21.617Z,93867
2018-03-11T08:38:49.827Z,93860
2018-03-11T08:41:17.985Z,93864
2018-03-11T08:43:46.085Z,93868
2018-03-11T08:46:14.449Z,93875
2018-03-11T08:48:42.560Z,93884
2018-03-11T08:51:10.660Z,93878
2018-03-11T08:53:38.766Z,93879
2018-03-11T08:56:06.874Z,93882
2018-03-11T08:58:34.980Z,93867
2018-03-11T09:01:03.072Z,93866
2018-03-11T09:03:31.179Z,93873
2018-03-11T09:05:59.274Z,93859
2018-03-11T09:08:27.394Z,93865
2018-03-11T09:10:55.517Z,93865
2018-03-11T09:13:23.616Z,93859
2018-03-11T09:15:52.496Z,93850
2018-03-11T09:18:20.587Z,93847
2018-03-11T09:20:49.469Z,93847
2018-03-11T09:23:17.612Z,93846
2018-03-11T09:25:45.740Z,93840
2018-03-11T09:28:13.899Z,93851
2018-03-11T09:30:42.033Z,93854
2018-03-11T09:33:10.150Z,93844
2018-03-11T09:35:38.253Z,93837
2018-03-11T09:38:06.392Z,93834
2018-03-11T09:40:34.489Z,93824
2018-03-11T09:43:02.591Z,93815
2018-03-11T09:45:30.718Z,93826
2018-03-11T09:47:58.840Z,93831
2018-03-11T09:50:26.940Z,93822
2018-03-11T09:52:55.812Z,93814
2018-03-11T09:55:23.933Z,93814
2018-03-11T09:57:52.034Z,93805
2018-03-11T10:00:20.455Z,93810
2018-03-11T10:02:49.350Z,93800
2018-03-11T10:05:17.478Z,93809
2018-03-11T10:07:45.568Z,93789
2018-03-11T10:10:13.684Z,93795
2018-03-11T10:12:41.886Z,93779
2018-03-11T10:15:10.089Z,93777
2018-03-11T10:30:34.197Z,93770
2018-03-11T10:33:02.306Z,93765
2018-03-11T10:35:30.442Z,93750
2018-03-11T10:37:58.548Z,93756
2018-03-11T10:40:26.750Z,93757
2018-03-11T10:42:54.958Z,93748
2018-03-11T10:45:23.170Z,93750
2018-03-11T10:47:51.281Z,93734
2018-03-11T10:50:19.398Z,93729
2018-03-11T10:52:47.509Z,93719
2018-03-11T10:55:15.609Z,93716
2018-03-11T10:57:43.710Z,93712
2018-03-11T11:00:11.809Z,93718
2018-03-11T11:02:41.119Z,93717
2018-03-11T11:05:11.199Z,93712
2018-03-11T11:07:39.341Z,93709
2018-03-11T11:10:07.433Z,93705
2018-03-11T11:12:35.570Z,93701
2018-03-11T11:15:03.679Z,93692
2018-03-11T11:17:31.800Z,93681
2018-03-11T11:19:59.898Z,93678
2018-03-11T11:22:27.993Z,93672
2018-03-11T11:24:56.130Z,93670
2018-03-11T11:27:24.498Z,93665
2018-03-11T11:29:52.610Z,93659
2018-03-11T11:32:21.475Z,93652
2018-03-11T11:34:49.583Z,93651
2018-03-11T11:37:17.710Z,93643
2018-03-11T11:39:45.914Z,93632
2018-03-11T11:42:14.792Z,93637
2018-03-11T11:44:42.959Z,93627
2018-03-11T11:47:11.079Z,93626
2018-03-11T11:49:39.809Z,93615
2018-03-11T11:52:07.918Z,93608
2018-03-11T11:54:36.106Z,93599
2018-03-11T11:57:05.148Z,93598
2018-03-11T11:59:33.252Z,93593
2018-03-11T12:02:01.380Z,93594
2018-03-11T12:04:29.507Z,93590
2018-03-11T12:06:57.614Z,93593
2018-03-11T12:09:25.747Z,93590
2018-03-11T12:11:53.879Z,93580
2018-03-11T12:14:22.052Z,93581
2018-03-11T12:16:50.608Z,93577
2018-03-11T12:19:18.752Z,93573
2018-03-11T12:21:46.864Z,93558
2018-03-11T12:24:15.097Z,93557
2018-03-11T12:26:43.217Z,93544
2018-03-11T12:29:11.373Z,93546
2018-03-11T12:31:39.483Z,93541
2018-03-11T12:34:07.625Z,93532
2018-03-11T12:36:35.741Z,93528
2018-03-11T12:39:03.849Z,93517
2018-03-11T12:41:32.002Z,93515
2018-03-11T12:44:00.873Z,93505
2018-03-11T12:46:29.000Z,93501
2018-03-11T12:48:57.160Z,93499
2018-03-11T12:51:25.313Z,93493
2018-03-11T12:53:53.407Z,93500
2018-03-11T12:56:21.502Z,93504
2018-03-11T12:58:49.629Z,93509
2018-03-11T13:01:17.816Z,93489
2018-03-11T13:03:46.108Z,93502
2018-03-11T13:06:14.305Z,93498
2018-03-11T13:08:42.502Z,93494
2018-03-11T13:11:10.858Z,93487
2018-03-11T13:13:38.989Z,93488
2018-03-11T13:16:10.916Z,93485
2018-03-11T13:18:39.811Z,93490
2018-03-11T13:21:09.849Z,93485
2018-03-11T13:23:38.924Z,93479
2018-03-11T13:26:07.201Z,93481
2018-03-11T13:28:47.888Z,93474
2018-03-11T13:31:16.000Z,93480
2018-03-11T13:34:01.751Z,93486
2018-03-11T13:36:30.482Z,93491
2018-03-11T13:39:16.297Z,93496
2018-03-11T13:41:44.398Z,93500
2018-03-11T13:44:12.584Z,93485
2018-03-11T13:47:10.322Z,93487
2018-03-11T13:49:38.504Z,93489
2018-03-11T13:52:24.254Z,93487
2018-03-11T13:54:52.415Z,93486
2018-03-11T14:00:50.903Z,93480
2018-03-11T14:03:19.717Z,93479
2018-03-11T14:05:47.870Z,93481
2018-03-11T14:08:16.013Z,93472
2018-03-11T14:10:44.296Z,93479
2018-03-11T14:13:12.501Z,93469
2018-03-11T14:15:40.682Z,93466
2018-03-11T14:18:08.785Z,93468
2018-03-11T14:20:36.937Z,93462
2018-03-11T14:23:05.813Z,93449
2018-03-11T14:25:33.963Z,93450
2018-03-11T14:28:02.091Z,93456
2018-03-11T14:30:30.308Z,93453
2018-03-11T14:32:58.427Z,93457
2018-03-11T14:35:26.551Z,93452
2018-03-11T14:37:54.922Z,93448
2018-03-11T14:40:23.026Z,93447
2018-03-11T14:42:51.137Z,93447
2018-03-11T14:45:19.241Z,93434
2018-03-11T14:47:47.360Z,93431
2018-03-11T14:50:15.461Z,93434
2018-03-11T14:52:43.583Z,93429
2018-03-11T14:55:11.732Z,93424
2018-03-11T14:57:39.950Z,93434
2018-03-11T15:00:08.074Z,93430
2018-03-11T15:02:36.260Z,93411
2018-03-11T15:05:04.824Z,93409
2018-03-11T15:07:33.018Z,93415
2018-03-11T15:10:01.263Z,93411
2018-03-11T15:12:29.412Z,93395
2018-03-11T15:14:57.518Z,93395
2018-03-11T15:17:25.690Z,93387
2018-03-11T15:19:54.477Z,93389
2018-03-11T15:22:22.577Z,93391
2018-03-11T15:24:51.325Z,93401
2018-03-11T15:27:20.221Z,93409
2018-03-11T15:29:49.172Z,93401
2018-03-11T15:32:17.531Z,93422
2018-03-11T15:34:45.635Z,93401
2018-03-11T15:37:13.765Z,93401
2018-03-11T15:39:41.873Z,93402
2018-03-11T15:42:09.999Z,93394
2018-03-11T15:44:38.115Z,93396
2018-03-11T15:47:06.255Z,93399
2018-03-11T15:49:34.417Z,93400
2018-03-11T15:52:02.532Z,93396
2018-03-11T15:54:30.703Z,93408
2018-03-11T15:56:58.922Z,93389
2018-03-11T15:59:27.851Z,93394
2018-03-11T16:01:56.295Z,93385
2018-03-11T16:04:25.479Z,93393
2018-03-11T16:06:53.590Z,93387
2018-03-11T16:09:21.773Z,93379
2018-03-11T16:11:49.917Z,93379
2018-03-11T16:14:18.012Z,93377
2018-03-11T16:16:46.132Z,93376
2018-03-11T16:19:14.245Z,93364
2018-03-11T16:21:42.372Z,93355
2018-03-11T16:24:10.563Z,93363
2018-03-11T16:26:38.701Z,93353
2018-03-11T16:29:06.827Z,93353
2018-03-11T16:31:34.954Z,93343
2018-03-11T16:34:03.845Z,93341
2018-03-11T16:36:31.990Z,93338
2018-03-11T16:39:00.162Z,93343
2018-03-11T16:41:28.288Z,93345
2018-03-11T16:43:57.202Z,93339
2018-03-11T16:46:25.305Z,93339
2018-03-11T16:48:53.428Z,93343
2018-03-11T16:51:21.583Z,93345
2018-03-11T16:53:49.692Z,93344
2018-03-11T16:56:17.890Z,93347
2018-03-11T16:58:46.070Z,93347
2018-03-11T17:01:14.287Z,93348
2018-03-11T17:03:42.419Z,93341
2018-03-11T17:06:10.536Z,93360
2018-03-11T17:08:38.639Z,93348
2018-03-11T17:11:06.776Z,93356
2018-03-11T17:13:34.882Z,93355
2018-03-11T17:16:02.971Z,93356
2018-03-11T17:18:31.161Z,93354
2018-03-11T17:20:59.627Z,93359
2018-03-11T17:23:27.736Z,93358
2018-03-11T17:25:55.858Z,93357
2018-03-11T17:28:24.038Z,93357
2018-03-11T17:30:52.250Z,93357
2018-03-11T17:33:20.508Z,93361
2018-03-11T17:35:48.740Z,93366
2018-03-11T17:38:18.074Z,93362
2018-03-11T17:40:46.185Z,93358
2018-03-11T17:43:14.287Z,93365
2018-03-11T17:45:42.421Z,93356
2018-03-11T17:48:10.517Z,93352
2018-03-11T17:50:38.620Z,93353
2018-03-11T17:53:06.952Z,93353
2018-03-11T17:55:35.087Z,93351
2018-03-11T17:58:03.196Z,93351
2018-03-11T18:00:31.320Z,93352
2018-03-11T18:03:00.177Z,93339
2018-03-11T18:05:29.069Z,93342
2018-03-11T18:07:57.253Z,93343
2018-03-11T18:10:25.362Z,93348
2018-03-11T18:12:53.553Z,93334
2018-03-11T18:15:21.738Z,93335
2018-03-11T18:17:50.052Z,93335
2018-03-11T18:20:18.206Z,93351
2018-03-11T18:22:46.467Z,93350
2018-03-11T18:25:14.707Z,93335
2018-03-11T18:27:42.873Z,93339
2018-03-11T18:30:11.114Z,93338
2018-03-11T18:32:39.220Z,93341
2018-03-11T18:35:07.433Z,93342
2018-03-11T18:37:36.143Z,93340
2018-03-11T18:40:04.558Z,93342
2018-03-11T18:42:32.678Z,93348
2018-03-11T18:45:01.246Z,93335
2018-03-11T18:47:29.394Z,93334
2018-03-11T18:49:57.566Z,93332
2018-03-11T18:52:25.666Z,93338
2018-03-11T18:54:53.810Z,93336
2018-03-11T18:57:21.969Z,93342
2018-03-11T18:59:50.112Z,93333
2018-03-11T19:02:18.216Z,93340
2018-03-11T19:04:46.360Z,93330
2018-03-11T19:07:15.272Z,93332
2018-03-11T19:09:47.989Z,93333
2018-03-11T19:12:16.264Z,93325
2018-03-11T19:14:44.566Z,93324
2018-03-11T19:17:13.048Z,93324
2018-03-11T19:19:41.152Z,93319
2018-03-11T19:22:09.302Z,93317
2018-03-11T19:24:37.540Z,93319
2018-03-11T19:27:05.773Z,93312
2018-03-11T19:29:33.932Z,93312
2018-03-11T19:32:02.156Z,93306
2018-03-11T19:34:30.382Z,93295
2018-03-11T19:36:58.525Z,93293
2018-03-11T19:39:27.166Z,93298
2018-03-11T19:41:55.653Z,93302
2018-03-11T19:44:30.750Z,93298
2018-03-11T19:47:00.555Z,93300
2018-03-11T19:49:28.801Z,93294
2018-03-11T19:51:57.033Z,93294
2018-03-11T19:54:25.929Z,93296
2018-03-11T19:56:54.046Z,93293
2018-03-11T19:59:22.181Z,93298
2018-03-11T20:01:50.338Z,93299
2018-03-11T20:04:18.480Z,93302
2018-03-11T20:06:46.607Z,93305
2018-03-11T20:09:14.891Z,93294
2018-03-11T20:11:43.004Z,93293
2018-03-11T20:14:11.131Z,93297
2018-03-11T20:16:39.286Z,93300
2018-03-11T20:19:07.476Z,93300
2018-03-11T20:21:35.598Z,93311
2018-03-11T20:24:03.705Z,93308
2018-03-11T20:26:31.825Z,93325
2018-03-11T20:28:59.921Z,93314
2018-03-11T20:31:28.032Z,93321
2018-03-11T20:33:56.280Z,93328
2018-03-11T20:36:24.472Z,93323
2018-03-11T20:38:52.618Z,93328
2018-03-11T20:41:20.739Z,93324
2018-03-11T20:43:48.900Z,93330
2018-03-11T20:46:17.048Z,93332
2018-03-11T20:48:45.136Z,93323
2018-03-11T20:51:13.241Z,93336
2018-03-11T20:53:41.355Z,93335
2018-03-11T20:56:09.465Z,93329
2018-03-11T20:58:37.702Z,93331
2018-03-11T21:01:05.822Z,93327
2018-03-11T21:03:33.950Z,93325
2018-03-11T21:06:02.063Z,93325
2018-03-11T21:08:30.184Z,93321
2018-03-11T21:10:58.294Z,93325
2018-03-11T21:13:27.422Z,93326
2018-03-11T21:16:00.714Z,93339
2018-03-11T21:18:28.825Z,93349
2018-03-11T21:20:56.980Z,93342
2018-03-11T21:23:25.185Z,93348
2018-03-11T21:25:53.324Z,93344
2018-03-11T21:28:21.441Z,93344
2018-03-11T21:30:50.343Z,93337
2018-03-11T21:33:18.487Z,93338
2018-03-11T21:35:46.686Z,93343
2018-03-11T21:38:15.587Z,93337
2018-03-11T21:40:43.695Z,93330
2018-03-11T21:43:11.846Z,93341
2018-03-11T21:45:39.945Z,93337
2018-03-11T21:48:08.078Z,93337
2018-03-11T21:50:36.202Z,93335
2018-03-11T21:53:04.316Z,93332
2018-03-11T21:55:32.419Z,93339
2018-03-11T21:58:00.588Z,93325
2018-03-11T22:00:32.918Z,93327
2018-03-11T22:03:01.012Z,93324
2018-03-11T22:05:29.248Z,93329
2018-03-11T22:07:57.728Z,93344
2018-03-11T22:10:25.889Z,93343
2018-03-11T22:12:53.992Z,93347
2018-03-11T22:15:22.156Z,93351
2018-03-11T22:17:50.530Z,93342
2018-03-11T22:20:18.741Z,93337
2018-03-11T22:22:46.960Z,93334
2018-03-11T22:25:15.191Z,93338
2018-03-11T22:27:43.421Z,93338
2018-03-11T22:30:11.572Z,93342
2018-03-11T22:32:39.689Z,93340
2018-03-11T22:35:07.855Z,93332
2018-03-11T22:37:35.949Z,93325
2018-03-11T22:40:04.055Z,93324
2018-03-11T22:42:32.171Z,93317
2018-03-11T22:45:00.740Z,93322
2018-03-11T22:47:28.829Z,93322
2018-03-11T22:49:57.023Z,93319
2018-03-11T22:52:25.902Z,93313
2018-03-11T22:54:54.076Z,93307
2018-03-11T22:57:22.177Z,93317
2018-03-11T22:59:50.334Z,93314
2018-03-11T23:02:18.640Z,93316
2018-03-11T23:04:46.743Z,93315
2018-03-11T23:07:14.843Z,93308
2018-03-11T23:09:42.932Z,93307
2018-03-11T23:12:11.046Z,93306
2018-03-11T23:14:39.157Z,93300
2018-03-11T23:17:07.414Z,93312
2018-03-11T23:19:35.580Z,93307
2018-03-11T23:22:03.792Z,93304
2018-03-11T23:24:32.674Z,93311
2018-03-11T23:27:00.774Z,93297
2018-03-11T23:29:28.906Z,93312
2018-03-11T23:31:57.022Z,93300
2018-03-11T23:34:25.258Z,93308
2018-03-11T23:36:53.370Z,93308
2018-03-11T23:39:21.466Z,93302
2018-03-11T23:41:49.589Z,93292
2018-03-11T23:44:18.524Z,93293
2018-03-11T23:46:46.650Z,93294
2018-03-11T23:49:14.763Z,93289
2018-03-11T23:51:43.833Z,93283
2018-03-11T23:54:11.973Z,93276
2018-03-11T23:56:40.161Z,93285
2018-03-11T23:59:08.296Z,93273
